createdAt,value
2022-10-19T00:02:15.366Z,27.67
2022-10-19T00:04:41.745Z,23.83
2022-10-19T00:07:08.152Z,24.35
2022-10-19T00:09:34.594Z,24.90
2022-10-19T00:12:00.948Z,18.75
2022-10-19T00:14:27.265Z,23.38
2022-10-19T00:16:54.508Z,22.55
2022-10-19T00:19:27.873Z,27.58
2022-10-19T00:21:54.766Z,19.75
2022-10-19T00:24:21.206Z,19.08
2022-10-19T00:26:47.569Z,21.27
2022-10-19T00:29:16.372Z,22.65
2022-10-19T00:31:42.877Z,24.50
2022-10-19T00:34:09.642Z,21.23
2022-10-19T00:36:37.424Z,23.92
2022-10-19T00:39:04.433Z,25.27
2022-10-19T00:41:32.360Z,22.17
2022-10-19T00:44:01.854Z,24.42
2022-10-19T00:46:29.504Z,25.77
2022-10-19T00:49:01.173Z,23.90
2022-10-19T00:51:28.592Z,19.75
2022-10-19T00:53:56.221Z,21.65
2022-10-19T00:56:23.157Z,21.55
2022-10-19T00:58:49.622Z,25.98
2022-10-19T01:01:17.443Z,25.40
2022-10-19T01:03:44.708Z,24.33
2022-10-19T01:06:12.097Z,27.95
2022-10-19T01:08:38.393Z,25.58
2022-10-19T01:11:10.554Z,30.58
2022-10-19T01:13:48.896Z,34.95
2022-10-19T01:16:21.653Z,30.48
2022-10-19T01:18:48.177Z,28.10
2022-10-19T01:21:20.689Z,30.30
2022-10-19T01:23:55.948Z,30.80
2022-10-19T01:26:40.991Z,27.88
2022-10-19T01:29:21.975Z,24.13
2022-10-19T01:31:51.226Z,26.85
2022-10-19T01:34:34.002Z,36.22
2022-10-19T01:37:06.351Z,31.88
2022-10-19T01:39:43.390Z,30.45
2022-10-19T01:42:17.421Z,30.55
2022-10-19T01:45:16.149Z,34.03
2022-10-19T01:47:47.071Z,22.35
2022-10-19T01:50:16.508Z,23.70
2022-10-19T01:52:42.956Z,24.33
2022-10-19T01:55:10.928Z,31.05
2022-10-19T01:57:40.617Z,22.58
2022-10-19T02:00:08.249Z,27.45
2022-10-19T02:02:36.412Z,29.30
2022-10-19T02:05:06.681Z,24.35
2022-10-19T02:07:33.674Z,26.42
2022-10-19T02:10:00.205Z,28.98
2022-10-19T02:12:28.588Z,29.92
2022-10-19T02:14:57.669Z,26.23
2022-10-19T02:17:28.711Z,31.05
2022-10-19T02:19:55.126Z,28.77
2022-10-19T02:22:21.735Z,27.85
2022-10-19T02:24:50.235Z,30.42
2022-10-19T02:27:16.819Z,34.45
2022-10-19T02:29:43.307Z,31.65
2022-10-19T02:32:10.157Z,32.85
2022-10-19T02:34:37.281Z,28.85
2022-10-19T02:37:03.818Z,32.50
2022-10-19T02:39:30.251Z,25.65
2022-10-19T02:42:00.441Z,31.02
2022-10-19T02:44:29.873Z,30.75
2022-10-19T02:47:08.475Z,33.38
2022-10-19T02:49:36.745Z,29.85
2022-10-19T02:52:04.818Z,37.20
2022-10-19T02:54:31.527Z,33.10
2022-10-19T02:56:57.831Z,30.88
2022-10-19T02:59:24.706Z,37.85
2022-10-19T03:01:51.131Z,33.55
2022-10-19T03:04:17.663Z,45.28
2022-10-19T03:06:44.198Z,33.92
2022-10-19T03:09:10.633Z,43.47
2022-10-19T03:11:36.974Z,34.65
2022-10-19T03:14:03.373Z,35.47
2022-10-19T03:16:30.725Z,38.33
2022-10-19T03:18:57.096Z,37.65
2022-10-19T03:21:23.477Z,39.08
2022-10-19T03:23:50.105Z,37.50
2022-10-19T03:26:16.862Z,38.50
2022-10-19T03:28:43.228Z,37.72
2022-10-19T03:31:09.690Z,31.30
2022-10-19T03:33:35.996Z,42.30
2022-10-19T03:36:18.015Z,39.22
2022-10-19T03:38:44.524Z,29.63
2022-10-19T03:41:11.357Z,32.22
2022-10-19T03:43:37.888Z,34.22
2022-10-19T03:46:04.259Z,38.33
2022-10-19T03:48:30.651Z,23.77
2022-10-19T03:51:16.925Z,28.67
2022-10-19T03:53:43.566Z,30.77
2022-10-19T03:56:14.190Z,29.60
2022-10-19T03:58:41.645Z,34.08
2022-10-19T04:01:09.777Z,29.30
2022-10-19T04:06:09.040Z,32.25
2022-10-19T04:08:35.678Z,31.67
2022-10-19T04:11:03.074Z,33.80
2022-10-19T04:13:29.762Z,31.33
2022-10-19T04:15:56.114Z,27.30
2022-10-19T04:18:22.519Z,25.58
2022-10-19T04:20:48.842Z,33.55
2022-10-19T04:25:41.451Z,24.30
2022-10-19T04:28:07.954Z,30.45
2022-10-19T04:30:34.274Z,27.05
2022-10-19T04:33:00.599Z,26.55
2022-10-19T04:35:27.193Z,26.08
2022-10-19T04:37:53.568Z,34.42
2022-10-19T04:40:19.939Z,33.17
2022-10-19T04:42:46.368Z,27.77
2022-10-19T04:45:12.720Z,32.47
2022-10-19T04:47:39.123Z,29.08
2022-10-19T04:50:05.637Z,34.35
2022-10-19T04:52:32.015Z,26.30
2022-10-19T04:55:02.656Z,25.83
2022-10-19T04:57:29.256Z,31.30
2022-10-19T04:59:55.734Z,29.92
2022-10-19T05:02:22.230Z,29.10
2022-10-19T05:04:49.060Z,25.48
2022-10-19T05:07:15.506Z,30.30
2022-10-19T05:09:41.890Z,31.38
2022-10-19T05:12:08.535Z,27.88
2022-10-19T05:14:36.748Z,32.58
2022-10-19T05:17:05.590Z,31.92
2022-10-19T05:19:31.952Z,32.63
2022-10-19T05:21:58.281Z,33.58
2022-10-19T05:24:24.670Z,33.10
2022-10-19T05:26:51.124Z,25.33
2022-10-19T05:29:17.619Z,25.83
2022-10-19T05:31:43.986Z,30.17
2022-10-19T05:34:10.375Z,23.85
2022-10-19T05:36:37.959Z,30.10
2022-10-19T05:39:05.937Z,27.60
2022-10-19T05:41:32.321Z,28.45
2022-10-19T05:44:01.643Z,34.05
2022-10-19T05:46:29.084Z,30.73
2022-10-19T05:48:56.438Z,32.40
2022-10-19T05:51:24.117Z,26.98
2022-10-19T05:53:50.586Z,21.52
2022-10-19T05:56:21.430Z,33.53
2022-10-19T05:58:48.242Z,36.10
2022-10-19T06:01:14.936Z,20.08
2022-10-19T06:03:41.582Z,30.30
2022-10-19T06:06:08.430Z,37.45
2022-10-19T06:08:34.977Z,25.80
2022-10-19T06:11:11.702Z,25.08
2022-10-19T06:13:39.105Z,26.67
2022-10-19T06:16:06.151Z,25.70
2022-10-19T06:18:32.714Z,23.15
2022-10-19T06:21:04.104Z,20.75
2022-10-19T06:23:30.877Z,20.65
2022-10-19T06:25:57.251Z,25.20
2022-10-19T06:28:23.685Z,20.98
2022-10-19T06:30:50.126Z,30.42
2022-10-19T06:33:16.528Z,31.55
2022-10-19T06:35:43.083Z,24.63
2022-10-19T06:38:09.743Z,27.25
2022-10-19T06:40:36.228Z,23.35
2022-10-19T06:43:02.635Z,21.40
2022-10-19T06:45:32.293Z,20.13
2022-10-19T06:48:05.008Z,20.90
2022-10-19T06:50:34.165Z,22.27
2022-10-19T06:53:00.498Z,19.60
2022-10-19T06:55:28.039Z,21.08
2022-10-19T06:57:54.390Z,36.72
2022-10-19T07:00:20.780Z,44.03
2022-10-19T07:02:48.139Z,32.35
2022-10-19T07:05:14.603Z,23.45
2022-10-19T07:07:40.929Z,27.70
2022-10-19T07:10:07.462Z,16.23
2022-10-19T07:12:33.885Z,24.15
2022-10-19T07:15:00.230Z,19.00
2022-10-19T07:17:26.616Z,22.02
2022-10-19T07:19:52.978Z,15.70
2022-10-19T07:22:24.360Z,11.82
2022-10-19T07:24:54.609Z,17.45
2022-10-19T07:27:20.967Z,16.30
2022-10-19T07:29:47.336Z,14.05
2022-10-19T07:32:13.734Z,13.48
2022-10-19T07:34:40.129Z,10.38
2022-10-19T07:37:06.705Z,16.45
2022-10-19T07:39:33.070Z,17.48
2022-10-19T07:42:01.394Z,10.30
2022-10-19T07:44:27.991Z,8.82
2022-10-19T07:46:54.535Z,9.90
2022-10-19T07:49:21.740Z,13.25
2022-10-19T07:51:48.296Z,10.82
2022-10-19T07:54:14.661Z,14.23
2022-10-19T07:56:41.063Z,12.25
2022-10-19T07:59:07.509Z,11.38
2022-10-19T08:01:35.577Z,19.67
2022-10-19T08:06:48.563Z,17.77
2022-10-19T08:09:33.411Z,12.57
2022-10-19T08:12:01.517Z,9.88
2022-10-19T08:14:28.020Z,11.52
2022-10-19T08:16:54.367Z,10.88
2022-10-19T08:19:22.588Z,12.43
2022-10-19T08:21:49.022Z,19.02
2022-10-19T08:24:16.298Z,16.17
2022-10-19T08:26:42.645Z,12.10
2022-10-19T08:29:09.021Z,15.60
2022-10-19T08:31:36.109Z,9.70
2022-10-19T08:34:02.572Z,9.75
2022-10-19T08:36:31.332Z,9.90
2022-10-19T08:38:57.905Z,12.02
2022-10-19T08:41:24.389Z,14.10
2022-10-19T08:44:06.252Z,18.65
2022-10-19T08:46:41.713Z,13.30
2022-10-19T08:49:09.562Z,13.25
2022-10-19T08:51:37.297Z,10.57
2022-10-19T08:54:12.187Z,13.63
2022-10-19T08:56:51.992Z,11.55
2022-10-19T08:59:25.858Z,9.80
2022-10-19T09:01:54.803Z,8.20
2022-10-19T09:04:26.016Z,14.05
2022-10-19T09:06:52.309Z,14.35
2022-10-19T09:09:19.592Z,9.88
2022-10-19T09:11:50.878Z,12.68
2022-10-19T09:14:30.316Z,8.07
2022-10-19T09:16:59.987Z,10.38
2022-10-19T09:19:29.958Z,16.20
2022-10-19T09:22:16.600Z,9.32
2022-10-19T09:24:52.253Z,7.55
2022-10-19T09:35:03.726Z,7.60
2022-10-19T09:40:01.498Z,10.63
2022-10-19T09:42:30.275Z,11.35
2022-10-19T09:44:58.303Z,9.05
2022-10-19T09:47:35.687Z,12.27
2022-10-19T09:50:25.456Z,9.35
2022-10-19T09:52:53.222Z,8.52
2022-10-19T09:55:22.502Z,9.55
2022-10-19T09:57:50.223Z,10.15
2022-10-19T10:00:31.384Z,7.38
2022-10-19T10:02:57.698Z,5.78
2022-10-19T10:05:35.779Z,5.68
2022-10-19T10:08:02.712Z,8.55
2022-10-19T10:10:32.501Z,11.73
2022-10-19T10:12:59.887Z,6.57
2022-10-19T10:15:27.526Z,7.53
2022-10-19T10:17:55.456Z,10.27
2022-10-19T10:20:30.454Z,7.97
2022-10-19T10:22:59.149Z,9.20
2022-10-19T10:25:27.041Z,4.07
2022-10-19T10:27:55.377Z,10.27
2022-10-19T10:30:21.676Z,6.65
2022-10-19T10:32:53.029Z,8.90
2022-10-19T10:35:25.454Z,5.35
2022-10-19T10:37:52.176Z,9.68
2022-10-19T10:40:24.008Z,7.20
2022-10-19T10:42:51.549Z,8.48
2022-10-19T10:45:36.842Z,5.10
2022-10-19T10:48:12.574Z,9.17
2022-10-19T10:50:39.512Z,8.77
2022-10-19T10:53:07.554Z,5.55
2022-10-19T10:55:34.354Z,5.07
2022-10-19T10:58:11.846Z,9.13
2022-10-19T11:00:40.370Z,5.80
2022-10-19T11:03:18.835Z,4.15
2022-10-19T11:05:46.748Z,5.70
2022-10-19T11:08:18.992Z,6.40
2022-10-19T11:10:49.940Z,6.43
2022-10-19T11:13:21.120Z,11.20
2022-10-19T11:15:53.024Z,3.78
2022-10-19T11:18:22.349Z,2.13
2022-10-19T11:21:07.278Z,2.67
2022-10-19T11:23:40.425Z,4.20
2022-10-19T11:26:06.704Z,4.40
2022-10-19T11:28:36.321Z,3.10
2022-10-19T11:31:02.602Z,3.72
2022-10-19T11:33:41.067Z,4.15
2022-10-19T11:36:15.318Z,6.20
2022-10-19T11:38:56.059Z,3.70
2022-10-19T11:41:40.975Z,4.65
2022-10-19T11:44:21.170Z,6.10
2022-10-19T11:46:56.630Z,7.95
2022-10-19T11:49:52.645Z,7.20
2022-10-19T11:52:25.091Z,7.90
2022-10-19T11:54:51.795Z,3.80
2022-10-19T11:57:27.616Z,7.53
2022-10-19T12:00:27.296Z,5.00
2022-10-19T12:03:10.121Z,5.03
2022-10-19T12:05:36.436Z,2.92
2022-10-19T12:08:21.505Z,2.63
2022-10-19T12:10:52.290Z,2.63
2022-10-19T12:13:21.998Z,7.53
2022-10-19T12:15:49.749Z,2.50
2022-10-19T12:18:18.950Z,6.35
2022-10-19T12:20:48.063Z,6.13
2022-10-19T12:23:17.503Z,7.25
2022-10-19T12:25:45.031Z,9.43
2022-10-19T12:28:18.786Z,3.20
2022-10-19T12:30:45.278Z,3.05
2022-10-19T12:33:23.341Z,6.38
2022-10-19T12:36:06.705Z,3.13
2022-10-19T12:38:40.967Z,7.65
2022-10-19T12:41:11.410Z,3.80
2022-10-19T12:43:52.025Z,3.67
2022-10-19T12:46:32.335Z,5.35
2022-10-19T12:49:17.514Z,4.80
2022-10-19T12:51:47.300Z,3.58
2022-10-19T12:54:13.760Z,4.10
2022-10-19T12:56:47.647Z,4.70
2022-10-19T12:59:22.855Z,4.53
2022-10-19T13:01:49.234Z,11.38
2022-10-19T13:04:15.625Z,5.30
2022-10-19T13:06:47.422Z,1.75
2022-10-19T13:09:25.923Z,3.70
2022-10-19T13:12:11.365Z,4.13
2022-10-19T13:14:40.965Z,3.25
2022-10-19T13:17:08.046Z,3.63
2022-10-19T13:19:34.394Z,4.00
2022-10-19T13:22:01.193Z,6.32
2022-10-19T13:24:27.569Z,3.95
2022-10-19T13:27:01.908Z,3.42
2022-10-19T13:29:39.718Z,3.20
2022-10-19T13:32:24.582Z,4.88
2022-10-19T13:34:50.945Z,2.33
2022-10-19T13:37:18.493Z,8.20
2022-10-19T13:39:46.413Z,7.15
2022-10-19T13:42:27.106Z,3.80
2022-10-19T13:44:53.804Z,7.10
2022-10-19T13:47:20.310Z,7.03
2022-10-19T13:49:47.168Z,3.90
2022-10-19T13:52:19.749Z,2.22
2022-10-19T13:54:58.660Z,3.85
2022-10-19T13:57:25.158Z,2.88
2022-10-19T13:59:51.506Z,3.83
2022-10-19T14:02:17.807Z,5.50
2022-10-19T14:05:02.857Z,3.72
2022-10-19T14:07:36.329Z,3.03
2022-10-19T14:10:28.321Z,5.85
2022-10-19T14:17:55.349Z,5.32
2022-10-19T14:20:24.710Z,3.53
2022-10-19T14:22:51.083Z,6.57
2022-10-19T14:25:20.592Z,2.53
2022-10-19T14:27:47.779Z,2.08
2022-10-19T14:30:21.566Z,2.55
2022-10-19T14:32:48.112Z,3.75
2022-10-19T14:35:22.446Z,2.38
2022-10-19T14:37:49.092Z,3.10
2022-10-19T14:40:26.412Z,5.07
2022-10-19T14:42:54.512Z,5.13
2022-10-19T14:45:28.839Z,4.57
2022-10-19T14:47:55.163Z,5.75
2022-10-19T14:50:23.042Z,3.25
2022-10-19T14:52:52.183Z,3.15
2022-10-19T14:55:20.133Z,8.85
2022-10-19T14:57:49.067Z,6.40
2022-10-19T15:00:18.094Z,5.43
2022-10-19T15:02:57.006Z,6.93
2022-10-19T15:05:24.594Z,4.15
2022-10-19T15:07:51.191Z,7.50
2022-10-19T15:10:19.233Z,3.13
2022-10-19T15:12:45.804Z,5.85
2022-10-19T15:15:15.268Z,2.75
2022-10-19T15:18:03.059Z,4.63
2022-10-19T15:20:43.953Z,3.70
2022-10-19T15:23:36.191Z,7.35
2022-10-19T15:26:16.747Z,5.05
2022-10-19T15:28:44.269Z,8.02
2022-10-19T15:31:21.112Z,6.30
2022-10-19T15:33:51.718Z,5.65
2022-10-19T15:36:19.639Z,4.13
2022-10-19T15:39:18.165Z,5.00
2022-10-19T15:41:52.077Z,6.22
2022-10-19T15:44:39.923Z,5.97
2022-10-19T15:47:20.393Z,6.35
2022-10-19T15:49:56.108Z,8.05
2022-10-19T15:59:41.562Z,5.30
2022-10-19T16:02:13.594Z,5.22
2022-10-19T16:04:40.008Z,4.40
2022-10-19T16:07:07.172Z,2.95
2022-10-19T16:09:34.460Z,3.80
2022-10-19T16:12:00.824Z,6.38
2022-10-19T16:14:28.344Z,3.95
2022-10-19T16:16:54.906Z,4.18
2022-10-19T16:19:21.284Z,8.18
2022-10-19T16:21:50.297Z,4.82
2022-10-19T16:24:16.948Z,9.77
2022-10-19T16:26:43.315Z,5.95
2022-10-19T16:29:09.618Z,3.70
2022-10-19T16:31:37.404Z,10.48
2022-10-19T16:34:03.701Z,7.65
2022-10-19T16:36:30.210Z,6.88
2022-10-19T16:38:56.624Z,2.15
2022-10-19T16:41:26.917Z,3.05
2022-10-19T16:43:56.659Z,4.95
2022-10-19T16:46:23.368Z,3.10
2022-10-19T16:48:49.806Z,6.65
2022-10-19T16:51:25.262Z,3.63
2022-10-19T16:53:53.408Z,3.00
2022-10-19T16:56:19.944Z,2.97
2022-10-19T16:58:46.536Z,4.97
2022-10-19T17:01:15.911Z,3.22
2022-10-19T17:03:42.770Z,3.90
2022-10-19T17:06:09.396Z,7.18
2022-10-19T17:08:37.062Z,6.05
2022-10-19T17:11:11.109Z,8.77
2022-10-19T17:13:37.575Z,7.28
2022-10-19T17:16:04.927Z,6.30
2022-10-19T17:18:31.381Z,8.00
2022-10-19T17:21:05.002Z,6.05
2022-10-19T17:23:31.544Z,7.07
2022-10-19T17:25:57.961Z,6.00
2022-10-19T17:28:27.606Z,4.95
2022-10-19T17:30:54.277Z,6.75
2022-10-19T17:33:21.446Z,5.15
2022-10-19T17:35:47.985Z,5.68
2022-10-19T17:38:14.431Z,4.95
2022-10-19T17:40:40.867Z,2.97
2022-10-19T17:43:07.144Z,3.80
2022-10-19T17:45:33.533Z,4.30
2022-10-19T17:47:59.933Z,5.63
2022-10-19T17:50:26.237Z,5.22
2022-10-19T17:52:52.653Z,6.05
2022-10-19T17:55:19.114Z,6.40
2022-10-19T17:57:45.500Z,4.65
2022-10-19T18:00:12.090Z,6.18
2022-10-19T18:02:38.516Z,6.07
2022-10-19T18:05:05.307Z,7.68
2022-10-19T18:07:32.143Z,5.55
2022-10-19T18:09:58.755Z,5.25
2022-10-19T18:12:25.451Z,5.15
2022-10-19T18:14:51.763Z,5.85
2022-10-19T18:17:18.121Z,5.35
2022-10-19T18:19:44.475Z,8.93
2022-10-19T18:22:10.878Z,7.68
2022-10-19T18:24:38.191Z,5.93
2022-10-19T18:27:04.563Z,6.43
2022-10-19T18:29:30.862Z,7.13
2022-10-19T18:31:57.269Z,14.25
2022-10-19T18:34:24.839Z,11.32
2022-10-19T18:36:51.748Z,16.60
2022-10-19T18:39:18.516Z,12.93
2022-10-19T18:41:44.874Z,16.05
2022-10-19T18:44:12.654Z,20.20
2022-10-19T18:46:40.363Z,17.50
2022-10-19T18:49:08.183Z,13.65
2022-10-19T18:51:35.000Z,12.13
2022-10-19T18:54:03.699Z,15.98
2022-10-19T18:56:30.005Z,10.82
2022-10-19T18:58:56.611Z,14.95
2022-10-19T19:01:26.956Z,9.63
2022-10-19T19:03:57.421Z,10.43
2022-10-19T19:06:24.575Z,12.88
2022-10-19T19:08:51.293Z,11.23
2022-10-19T19:11:19.342Z,9.57
2022-10-19T19:13:49.681Z,11.40
2022-10-19T19:16:16.076Z,14.52
2022-10-19T19:18:42.632Z,10.05
2022-10-19T19:21:25.593Z,13.52
2022-10-19T19:23:52.539Z,12.65
2022-10-19T19:26:21.464Z,10.05
2022-10-19T19:28:50.740Z,8.27
2022-10-19T19:31:17.961Z,10.50
2022-10-19T19:33:45.011Z,9.18
2022-10-19T19:36:12.065Z,15.10
2022-10-19T19:38:38.388Z,14.73
2022-10-19T19:41:05.842Z,10.20
2022-10-19T19:43:32.916Z,10.13
2022-10-19T19:46:03.111Z,9.57
2022-10-19T19:48:32.659Z,8.07
2022-10-19T19:50:59.059Z,8.77
2022-10-19T19:53:25.397Z,14.02
2022-10-19T19:55:51.739Z,9.73
2022-10-19T19:58:18.885Z,13.60
2022-10-19T20:00:45.965Z,9.52
2022-10-19T20:03:13.278Z,11.57
2022-10-19T20:05:42.464Z,9.68
2022-10-19T20:08:09.078Z,12.93
2022-10-19T20:10:39.449Z,14.43
2022-10-19T20:13:05.899Z,8.60
2022-10-19T20:15:32.245Z,11.52
2022-10-19T20:17:58.580Z,12.57
2022-10-19T20:20:24.956Z,10.07
2022-10-19T20:22:51.286Z,9.50
2022-10-19T20:25:18.109Z,11.90
2022-10-19T20:27:44.402Z,11.25
2022-10-19T20:30:11.028Z,12.40
2022-10-19T20:32:37.723Z,11.45
2022-10-19T20:35:04.586Z,10.55
2022-10-19T20:37:31.386Z,12.43
2022-10-19T20:39:57.766Z,13.00
2022-10-19T20:42:24.123Z,11.45
2022-10-19T20:44:50.430Z,17.85
2022-10-19T20:47:17.295Z,13.48
2022-10-19T20:49:43.698Z,14.13
2022-10-19T20:52:10.048Z,14.25
2022-10-19T20:54:36.973Z,14.77
2022-10-19T20:57:03.410Z,12.38
2022-10-19T20:59:31.443Z,9.63
2022-10-19T21:01:57.877Z,12.20
2022-10-19T21:04:25.633Z,8.32
2022-10-19T21:06:52.631Z,9.40
2022-10-19T21:09:21.765Z,11.88
2022-10-19T21:11:50.061Z,10.40
2022-10-19T21:14:17.630Z,9.75
2022-10-19T21:16:44.167Z,9.48
2022-10-19T21:19:12.368Z,8.32
2022-10-19T21:21:39.922Z,8.13
2022-10-19T21:24:20.060Z,11.23
2022-10-19T21:26:46.600Z,8.10
2022-10-19T21:29:13.751Z,9.35
2022-10-19T21:31:44.040Z,11.60
2022-10-19T21:34:17.652Z,9.13
2022-10-19T21:36:43.986Z,8.88
2022-10-19T21:39:10.427Z,12.52
2022-10-19T21:41:36.791Z,12.98
2022-10-19T21:44:03.399Z,6.63
2022-10-19T21:46:29.840Z,9.45
2022-10-19T21:48:56.470Z,8.52
2022-10-19T21:51:32.053Z,7.13
2022-10-19T21:56:24.753Z,13.98
2022-10-19T21:58:52.571Z,10.13
2022-10-19T22:01:20.329Z,11.18
2022-10-19T22:03:46.729Z,7.70
2022-10-19T22:06:13.339Z,8.02
2022-10-19T22:08:43.537Z,9.30
2022-10-19T22:11:10.948Z,9.23
2022-10-19T22:13:37.360Z,6.85
2022-10-19T22:16:11.438Z,7.07
2022-10-19T22:18:38.051Z,6.53
2022-10-19T22:21:05.494Z,8.98
2022-10-19T22:23:31.886Z,6.85
2022-10-19T22:25:58.602Z,7.22
2022-10-19T22:28:24.953Z,11.05
2022-10-19T22:30:58.413Z,7.15
2022-10-19T22:33:25.486Z,7.53
2022-10-19T22:35:59.354Z,5.43
2022-10-19T22:38:27.010Z,6.25
2022-10-19T22:40:53.326Z,7.68
2022-10-19T22:43:20.095Z,10.43
2022-10-19T22:45:47.794Z,11.05
2022-10-19T22:48:14.684Z,7.40
2022-10-19T22:50:41.046Z,6.20
2022-10-19T22:53:07.370Z,6.78
2022-10-19T22:55:33.759Z,6.60
2022-10-19T22:58:00.129Z,6.82
2022-10-19T23:00:26.538Z,6.57
2022-10-19T23:02:53.436Z,4.68
2022-10-19T23:05:19.738Z,5.07
2022-10-19T23:07:46.049Z,5.38
2022-10-19T23:10:12.743Z,5.85
2022-10-19T23:12:39.074Z,5.75
2022-10-19T23:15:05.576Z,6.97
2022-10-19T23:17:32.011Z,6.63
2022-10-19T23:19:58.358Z,8.35
2022-10-19T23:22:24.754Z,6.30
2022-10-19T23:24:51.110Z,4.90
2022-10-19T23:27:17.425Z,4.43
2022-10-19T23:29:43.779Z,3.88
2022-10-19T23:32:10.170Z,4.45
2022-10-19T23:34:36.538Z,8.05
2022-10-19T23:37:02.855Z,12.20
2022-10-19T23:39:29.223Z,4.78
2022-10-19T23:41:55.537Z,10.20
2022-10-19T23:44:21.892Z,7.22
2022-10-19T23:46:48.357Z,7.57
2022-10-19T23:49:14.753Z,8.48
2022-10-19T23:51:41.107Z,6.30
2022-10-19T23:54:07.399Z,5.60
2022-10-19T23:56:33.719Z,8.02
2022-10-19T23:59:00.079Z,5.43
